sensor_id;sensor_type;location;lat;lon;timestamp;temperature;humidity
52107;DHT22;38105;52.968;5.974;2022-07-22T00:02:06;16.40;99.90
52107;DHT22;38105;52.968;5.974;2022-07-22T00:04:32;16.40;99.90
52107;DHT22;38105;52.968;5.974;2022-07-22T00:06:57;16.20;99.90
52107;DHT22;38105;52.968;5.974;2022-07-22T00:09:23;16.10;99.90
52107;DHT22;38105;52.968;5.974;2022-07-22T00:11:49;16.20;99.90
52107;DHT22;38105;52.968;5.974;2022-07-22T00:14:14;16.30;99.90
52107;DHT22;38105;52.968;5.974;2022-07-22T00:16:40;16.10;99.90
52107;DHT22;38105;52.968;5.974;2022-07-22T00:19:06;16.10;99.90
52107;DHT22;38105;52.968;5.974;2022-07-22T00:21:31;16.10;99.90
52107;DHT22;38105;52.968;5.974;2022-07-22T00:23:57;16.20;99.90
52107;DHT22;38105;52.968;5.974;2022-07-22T00:26:23;16.00;99.90
52107;DHT22;38105;52.968;5.974;2022-07-22T00:28:49;16.10;99.90
52107;DHT22;38105;52.968;5.974;2022-07-22T00:31:14;16.10;99.90
52107;DHT22;38105;52.968;5.974;2022-07-22T00:33:40;16.10;99.90
52107;DHT22;38105;52.968;5.974;2022-07-22T00:36:07;16.30;99.90
52107;DHT22;38105;52.968;5.974;2022-07-22T00:38:33;16.10;99.90
52107;DHT22;38105;52.968;5.974;2022-07-22T00:41:00;16.20;99.90
52107;DHT22;38105;52.968;5.974;2022-07-22T00:43:26;16.10;99.90
52107;DHT22;38105;52.968;5.974;2022-07-22T00:45:51;16.10;99.90
52107;DHT22;38105;52.968;5.974;2022-07-22T00:48:17;16.20;99.90
52107;DHT22;38105;52.968;5.974;2022-07-22T00:50:42;16.30;99.90
52107;DHT22;38105;52.968;5.974;2022-07-22T00:53:08;16.20;99.90
52107;DHT22;38105;52.968;5.974;2022-07-22T00:55:34;16.40;99.90
52107;DHT22;38105;52.968;5.974;2022-07-22T00:58:01;16.40;99.90
52107;DHT22;38105;52.968;5.974;2022-07-22T01:00:27;16.50;99.90
52107;DHT22;38105;52.968;5.974;2022-07-22T01:02:53;16.40;99.90
52107;DHT22;38105;52.968;5.974;2022-07-22T01:05:19;16.30;99.90
52107;DHT22;38105;52.968;5.974;2022-07-22T01:07:45;16.50;99.90
52107;DHT22;38105;52.968;5.974;2022-07-22T01:10:11;16.50;99.90
52107;DHT22;38105;52.968;5.974;2022-07-22T01:12:37;16.30;99.90
52107;DHT22;38105;52.968;5.974;2022-07-22T01:15:03;16.50;99.90
52107;DHT22;38105;52.968;5.974;2022-07-22T01:17:29;16.50;99.90
52107;DHT22;38105;52.968;5.974;2022-07-22T01:20:04;16.40;99.90
52107;DHT22;38105;52.968;5.974;2022-07-22T01:22:31;16.40;99.90
52107;DHT22;38105;52.968;5.974;2022-07-22T01:24:56;16.30;99.90
52107;DHT22;38105;52.968;5.974;2022-07-22T01:27:22;16.40;99.90
52107;DHT22;38105;52.968;5.974;2022-07-22T01:29:47;16.40;99.90
52107;DHT22;38105;52.968;5.974;2022-07-22T01:32:13;16.60;99.90
52107;DHT22;38105;52.968;5.974;2022-07-22T01:34:39;16.60;99.90
52107;DHT22;38105;52.968;5.974;2022-07-22T01:37:04;16.60;99.90
52107;DHT22;38105;52.968;5.974;2022-07-22T01:39:30;16.60;99.90
52107;DHT22;38105;52.968;5.974;2022-07-22T01:41:55;16.50;99.90
52107;DHT22;38105;52.968;5.974;2022-07-22T01:44:21;16.70;99.90
52107;DHT22;38105;52.968;5.974;2022-07-22T01:46:47;16.50;99.90
52107;DHT22;38105;52.968;5.974;2022-07-22T01:49:14;16.70;99.90
52107;DHT22;38105;52.968;5.974;2022-07-22T01:51:40;16.70;99.90
52107;DHT22;38105;52.968;5.974;2022-07-22T01:54:06;16.70;99.90
52107;DHT22;38105;52.968;5.974;2022-07-22T01:56:32;16.70;99.90
52107;DHT22;38105;52.968;5.974;2022-07-22T01:58:57;16.70;99.90
52107;DHT22;38105;52.968;5.974;2022-07-22T02:01:23;16.60;99.90
52107;DHT22;38105;52.968;5.974;2022-07-22T02:03:50;16.60;99.90
52107;DHT22;38105;52.968;5.974;2022-07-22T02:06:16;16.50;99.90
52107;DHT22;38105;52.968;5.974;2022-07-22T02:08:41;16.50;99.90
52107;DHT22;38105;52.968;5.974;2022-07-22T02:11:07;16.40;99.90
52107;DHT22;38105;52.968;5.974;2022-07-22T02:13:33;16.40;99.90
52107;DHT22;38105;52.968;5.974;2022-07-22T02:15:58;16.50;99.90
52107;DHT22;38105;52.968;5.974;2022-07-22T02:18:24;16.30;99.90
52107;DHT22;38105;52.968;5.974;2022-07-22T02:20:51;16.50;99.90
52107;DHT22;38105;52.968;5.974;2022-07-22T02:23:16;16.50;99.90
52107;DHT22;38105;52.968;5.974;2022-07-22T02:25:42;16.40;99.90
52107;DHT22;38105;52.968;5.974;2022-07-22T02:28:08;16.20;99.90
52107;DHT22;38105;52.968;5.974;2022-07-22T02:30:34;16.20;99.90
52107;DHT22;38105;52.968;5.974;2022-07-22T02:33:00;16.30;99.90
52107;DHT22;38105;52.968;5.974;2022-07-22T02:35:25;16.30;99.90
52107;DHT22;38105;52.968;5.974;2022-07-22T02:37:51;16.20;99.90
52107;DHT22;38105;52.968;5.974;2022-07-22T02:40:17;16.30;99.90
52107;DHT22;38105;52.968;5.974;2022-07-22T02:42:43;16.30;99.90
52107;DHT22;38105;52.968;5.974;2022-07-22T02:45:09;16.10;99.90
52107;DHT22;38105;52.968;5.974;2022-07-22T02:47:35;16.10;99.90
52107;DHT22;38105;52.968;5.974;2022-07-22T02:50:01;16.10;99.90
52107;DHT22;38105;52.968;5.974;2022-07-22T02:52:26;16.00;99.90
52107;DHT22;38105;52.968;5.974;2022-07-22T02:54:52;16.00;99.90
52107;DHT22;38105;52.968;5.974;2022-07-22T02:57:18;16.00;99.90
52107;DHT22;38105;52.968;5.974;2022-07-22T02:59:44;16.20;99.90
52107;DHT22;38105;52.968;5.974;2022-07-22T03:02:09;16.00;99.90
52107;DHT22;38105;52.968;5.974;2022-07-22T03:04:35;16.10;99.90
52107;DHT22;38105;52.968;5.974;2022-07-22T03:07:00;16.10;99.90
52107;DHT22;38105;52.968;5.974;2022-07-22T03:09:26;16.20;99.90
52107;DHT22;38105;52.968;5.974;2022-07-22T03:11:52;16.10;99.90
52107;DHT22;38105;52.968;5.974;2022-07-22T03:14:17;16.00;99.90
52107;DHT22;38105;52.968;5.974;2022-07-22T03:16:44;15.90;99.90
52107;DHT22;38105;52.968;5.974;2022-07-22T03:19:10;16.00;99.90
52107;DHT22;38105;52.968;5.974;2022-07-22T03:21:35;15.90;99.90
52107;DHT22;38105;52.968;5.974;2022-07-22T03:24:01;16.00;99.90
52107;DHT22;38105;52.968;5.974;2022-07-22T03:26:27;15.90;99.90
52107;DHT22;38105;52.968;5.974;2022-07-22T03:28:52;15.80;99.90
52107;DHT22;38105;52.968;5.974;2022-07-22T03:31:18;15.90;99.90
52107;DHT22;38105;52.968;5.974;2022-07-22T03:33:43;15.90;99.90
52107;DHT22;38105;52.968;5.974;2022-07-22T03:36:09;15.90;99.90
52107;DHT22;38105;52.968;5.974;2022-07-22T03:38:35;15.80;99.90
52107;DHT22;38105;52.968;5.974;2022-07-22T03:41:01;15.90;99.90
52107;DHT22;38105;52.968;5.974;2022-07-22T03:43:27;15.90;99.90
52107;DHT22;38105;52.968;5.974;2022-07-22T03:45:52;15.80;99.90
52107;DHT22;38105;52.968;5.974;2022-07-22T03:48:18;15.80;99.90
52107;DHT22;38105;52.968;5.974;2022-07-22T03:50:43;15.90;99.90
52107;DHT22;38105;52.968;5.974;2022-07-22T03:53:09;15.90;99.90
52107;DHT22;38105;52.968;5.974;2022-07-22T03:55:35;15.80;99.90
52107;DHT22;38105;52.968;5.974;2022-07-22T03:58:00;15.80;99.90
52107;DHT22;38105;52.968;5.974;2022-07-22T04:00:26;15.90;99.90
52107;DHT22;38105;52.968;5.974;2022-07-22T04:02:52;15.80;99.90
52107;DHT22;38105;52.968;5.974;2022-07-22T04:05:17;15.90;99.90
52107;DHT22;38105;52.968;5.974;2022-07-22T04:07:43;16.10;99.90
52107;DHT22;38105;52.968;5.974;2022-07-22T04:10:09;16.10;99.90
52107;DHT22;38105;52.968;5.974;2022-07-22T04:12:36;16.00;99.90
52107;DHT22;38105;52.968;5.974;2022-07-22T04:15:04;16.20;99.90
52107;DHT22;38105;52.968;5.974;2022-07-22T04:17:30;16.10;99.90
52107;DHT22;38105;52.968;5.974;2022-07-22T04:19:55;16.00;99.90
52107;DHT22;38105;52.968;5.974;2022-07-22T04:22:21;16.20;99.90
52107;DHT22;38105;52.968;5.974;2022-07-22T04:24:47;16.20;99.90
52107;DHT22;38105;52.968;5.974;2022-07-22T04:27:12;16.10;99.90
52107;DHT22;38105;52.968;5.974;2022-07-22T04:29:38;16.10;99.90
52107;DHT22;38105;52.968;5.974;2022-07-22T04:32:04;16.30;99.90
52107;DHT22;38105;52.968;5.974;2022-07-22T04:34:30;16.30;99.90
52107;DHT22;38105;52.968;5.974;2022-07-22T04:36:55;16.20;99.90
52107;DHT22;38105;52.968;5.974;2022-07-22T04:39:21;16.30;99.90
52107;DHT22;38105;52.968;5.974;2022-07-22T04:41:46;16.30;99.90
52107;DHT22;38105;52.968;5.974;2022-07-22T04:44:12;16.20;99.90
52107;DHT22;38105;52.968;5.974;2022-07-22T04:46:37;16.10;99.90
52107;DHT22;38105;52.968;5.974;2022-07-22T04:49:03;16.30;99.90
52107;DHT22;38105;52.968;5.974;2022-07-22T04:51:29;16.20;99.90
52107;DHT22;38105;52.968;5.974;2022-07-22T04:53:55;16.10;99.90
52107;DHT22;38105;52.968;5.974;2022-07-22T04:56:21;16.30;99.90
52107;DHT22;38105;52.968;5.974;2022-07-22T04:58:46;16.30;99.90
52107;DHT22;38105;52.968;5.974;2022-07-22T05:01:12;16.40;99.90
52107;DHT22;38105;52.968;5.974;2022-07-22T05:03:41;16.40;99.90
52107;DHT22;38105;52.968;5.974;2022-07-22T05:06:07;16.50;99.90
52107;DHT22;38105;52.968;5.974;2022-07-22T05:08:33;16.40;99.90
52107;DHT22;38105;52.968;5.974;2022-07-22T05:10:59;16.40;99.90
52107;DHT22;38105;52.968;5.974;2022-07-22T05:13:24;16.40;99.90
52107;DHT22;38105;52.968;5.974;2022-07-22T05:15:50;16.40;99.90
52107;DHT22;38105;52.968;5.974;2022-07-22T05:18:16;16.50;99.90
52107;DHT22;38105;52.968;5.974;2022-07-22T05:20:42;16.40;99.90
52107;DHT22;38105;52.968;5.974;2022-07-22T05:23:08;16.40;99.90
52107;DHT22;38105;52.968;5.974;2022-07-22T05:25:34;16.40;99.90
52107;DHT22;38105;52.968;5.974;2022-07-22T05:27:59;16.50;99.90
52107;DHT22;38105;52.968;5.974;2022-07-22T05:30:25;16.50;99.90
52107;DHT22;38105;52.968;5.974;2022-07-22T05:32:51;16.70;99.90
52107;DHT22;38105;52.968;5.974;2022-07-22T05:35:17;16.50;99.90
52107;DHT22;38105;52.968;5.974;2022-07-22T05:37:43;16.60;99.90
52107;DHT22;38105;52.968;5.974;2022-07-22T05:40:08;16.60;99.90
52107;DHT22;38105;52.968;5.974;2022-07-22T05:42:34;16.70;99.90
52107;DHT22;38105;52.968;5.974;2022-07-22T05:45:00;16.80;99.90
52107;DHT22;38105;52.968;5.974;2022-07-22T05:47:26;16.80;99.90
52107;DHT22;38105;52.968;5.974;2022-07-22T05:49:51;16.60;99.90
52107;DHT22;38105;52.968;5.974;2022-07-22T05:52:17;16.70;99.90
52107;DHT22;38105;52.968;5.974;2022-07-22T05:54:43;16.70;99.90
52107;DHT22;38105;52.968;5.974;2022-07-22T05:57:08;16.70;99.90
52107;DHT22;38105;52.968;5.974;2022-07-22T05:59:36;16.80;99.90
52107;DHT22;38105;52.968;5.974;2022-07-22T06:02:02;16.80;99.90
52107;DHT22;38105;52.968;5.974;2022-07-22T06:04:28;16.90;99.90
52107;DHT22;38105;52.968;5.974;2022-07-22T06:06:54;17.00;99.90
52107;DHT22;38105;52.968;5.974;2022-07-22T06:09:19;17.00;99.90
52107;DHT22;38105;52.968;5.974;2022-07-22T06:11:45;17.20;99.90
52107;DHT22;38105;52.968;5.974;2022-07-22T06:14:11;17.20;99.90
52107;DHT22;38105;52.968;5.974;2022-07-22T06:16:37;17.10;99.90
52107;DHT22;38105;52.968;5.974;2022-07-22T06:19:03;17.00;99.90
52107;DHT22;38105;52.968;5.974;2022-07-22T06:21:28;17.00;99.90
52107;DHT22;38105;52.968;5.974;2022-07-22T06:23:54;17.10;99.90
52107;DHT22;38105;52.968;5.974;2022-07-22T06:26:20;17.20;99.90
52107;DHT22;38105;52.968;5.974;2022-07-22T06:28:46;17.40;99.90
52107;DHT22;38105;52.968;5.974;2022-07-22T06:31:11;17.40;99.90
52107;DHT22;38105;52.968;5.974;2022-07-22T06:33:37;17.60;99.90
52107;DHT22;38105;52.968;5.974;2022-07-22T06:36:03;17.60;99.90
52107;DHT22;38105;52.968;5.974;2022-07-22T06:38:29;17.70;99.90
52107;DHT22;38105;52.968;5.974;2022-07-22T06:40:55;17.80;99.90
52107;DHT22;38105;52.968;5.974;2022-07-22T06:43:21;17.70;99.90
52107;DHT22;38105;52.968;5.974;2022-07-22T06:45:47;17.90;99.90
52107;DHT22;38105;52.968;5.974;2022-07-22T06:48:13;17.90;99.90
52107;DHT22;38105;52.968;5.974;2022-07-22T06:50:39;18.00;99.90
52107;DHT22;38105;52.968;5.974;2022-07-22T06:53:04;18.00;99.90
52107;DHT22;38105;52.968;5.974;2022-07-22T06:55:30;18.10;99.90
52107;DHT22;38105;52.968;5.974;2022-07-22T06:57:56;18.10;99.90
52107;DHT22;38105;52.968;5.974;2022-07-22T07:00:22;18.00;99.90
52107;DHT22;38105;52.968;5.974;2022-07-22T07:02:47;18.10;99.90
52107;DHT22;38105;52.968;5.974;2022-07-22T07:05:13;18.10;99.90
52107;DHT22;38105;52.968;5.974;2022-07-22T07:07:39;18.10;99.90
52107;DHT22;38105;52.968;5.974;2022-07-22T07:10:05;18.10;99.90
52107;DHT22;38105;52.968;5.974;2022-07-22T07:12:30;18.10;99.90
52107;DHT22;38105;52.968;5.974;2022-07-22T07:14:56;18.20;99.90
52107;DHT22;38105;52.968;5.974;2022-07-22T07:17:22;18.10;99.90
52107;DHT22;38105;52.968;5.974;2022-07-22T07:19:49;18.20;99.90
52107;DHT22;38105;52.968;5.974;2022-07-22T07:22:14;18.00;99.90
52107;DHT22;38105;52.968;5.974;2022-07-22T07:24:40;18.00;99.90
52107;DHT22;38105;52.968;5.974;2022-07-22T07:27:05;17.90;99.90
52107;DHT22;38105;52.968;5.974;2022-07-22T07:29:32;18.10;99.90
52107;DHT22;38105;52.968;5.974;2022-07-22T07:31:57;18.10;99.90
52107;DHT22;38105;52.968;5.974;2022-07-22T07:34:23;18.10;99.90
52107;DHT22;38105;52.968;5.974;2022-07-22T07:36:48;18.20;99.90
52107;DHT22;38105;52.968;5.974;2022-07-22T07:39:14;18.20;99.90
52107;DHT22;38105;52.968;5.974;2022-07-22T07:41:40;18.20;99.90
52107;DHT22;38105;52.968;5.974;2022-07-22T07:44:06;18.20;99.90
52107;DHT22;38105;52.968;5.974;2022-07-22T07:46:31;18.40;99.90
52107;DHT22;38105;52.968;5.974;2022-07-22T07:48:57;18.30;99.90
52107;DHT22;38105;52.968;5.974;2022-07-22T07:51:23;18.40;99.90
52107;DHT22;38105;52.968;5.974;2022-07-22T07:53:48;18.50;99.90
52107;DHT22;38105;52.968;5.974;2022-07-22T07:56:14;18.60;99.90
52107;DHT22;38105;52.968;5.974;2022-07-22T07:58:40;18.70;99.90
52107;DHT22;38105;52.968;5.974;2022-07-22T08:01:05;18.90;99.90
52107;DHT22;38105;52.968;5.974;2022-07-22T08:03:31;19.00;99.90
52107;DHT22;38105;52.968;5.974;2022-07-22T08:05:57;19.00;99.90
52107;DHT22;38105;52.968;5.974;2022-07-22T08:08:25;19.20;99.90
52107;DHT22;38105;52.968;5.974;2022-07-22T08:10:51;19.20;99.90
52107;DHT22;38105;52.968;5.974;2022-07-22T08:13:16;19.20;99.90
52107;DHT22;38105;52.968;5.974;2022-07-22T08:15:42;19.20;99.90
52107;DHT22;38105;52.968;5.974;2022-07-22T08:18:07;19.10;99.90
52107;DHT22;38105;52.968;5.974;2022-07-22T08:20:33;19.00;99.90
52107;DHT22;38105;52.968;5.974;2022-07-22T08:22:59;19.00;99.90
52107;DHT22;38105;52.968;5.974;2022-07-22T08:25:24;18.80;99.90
52107;DHT22;38105;52.968;5.974;2022-07-22T08:27:51;18.60;99.90
52107;DHT22;38105;52.968;5.974;2022-07-22T08:30:17;18.50;99.90
52107;DHT22;38105;52.968;5.974;2022-07-22T08:32:43;18.40;99.90
52107;DHT22;38105;52.968;5.974;2022-07-22T08:35:09;18.30;99.90
52107;DHT22;38105;52.968;5.974;2022-07-22T08:37:35;18.30;99.90
52107;DHT22;38105;52.968;5.974;2022-07-22T08:40:02;18.20;99.90
52107;DHT22;38105;52.968;5.974;2022-07-22T08:42:27;18.20;99.90
52107;DHT22;38105;52.968;5.974;2022-07-22T08:44:54;18.30;99.90
52107;DHT22;38105;52.968;5.974;2022-07-22T08:47:23;18.30;99.90
52107;DHT22;38105;52.968;5.974;2022-07-22T08:49:49;18.30;99.90
52107;DHT22;38105;52.968;5.974;2022-07-22T08:52:15;18.30;99.90
52107;DHT22;38105;52.968;5.974;2022-07-22T08:54:41;18.30;99.90
52107;DHT22;38105;52.968;5.974;2022-07-22T08:57:07;18.40;99.90
52107;DHT22;38105;52.968;5.974;2022-07-22T08:59:32;18.50;99.90
52107;DHT22;38105;52.968;5.974;2022-07-22T09:02:06;18.60;99.90
52107;DHT22;38105;52.968;5.974;2022-07-22T09:04:53;18.70;99.90
52107;DHT22;38105;52.968;5.974;2022-07-22T09:10:00;18.80;99.90
52107;DHT22;38105;52.968;5.974;2022-07-22T09:12:27;18.80;99.90
52107;DHT22;38105;52.968;5.974;2022-07-22T09:14:58;19.00;99.90
52107;DHT22;38105;52.968;5.974;2022-07-22T09:17:28;19.10;99.90
52107;DHT22;38105;52.968;5.974;2022-07-22T09:19:56;19.20;99.90
52107;DHT22;38105;52.968;5.974;2022-07-22T09:22:38;19.30;99.90
52107;DHT22;38105;52.968;5.974;2022-07-22T09:25:43;19.50;99.90
52107;DHT22;38105;52.968;5.974;2022-07-22T09:28:12;19.60;99.90
52107;DHT22;38105;52.968;5.974;2022-07-22T09:30:40;19.70;99.90
52107;DHT22;38105;52.968;5.974;2022-07-22T09:33:07;19.70;99.90
52107;DHT22;38105;52.968;5.974;2022-07-22T09:35:33;19.60;99.90
52107;DHT22;38105;52.968;5.974;2022-07-22T09:38:02;19.50;99.90
52107;DHT22;38105;52.968;5.974;2022-07-22T09:40:41;19.60;99.90
52107;DHT22;38105;52.968;5.974;2022-07-22T09:43:11;19.50;99.90
52107;DHT22;38105;52.968;5.974;2022-07-22T09:45:54;19.50;99.90
52107;DHT22;38105;52.968;5.974;2022-07-22T09:48:21;19.40;99.90
52107;DHT22;38105;52.968;5.974;2022-07-22T09:50:49;19.30;99.90
52107;DHT22;38105;52.968;5.974;2022-07-22T09:53:16;19.30;99.90
52107;DHT22;38105;52.968;5.974;2022-07-22T09:55:42;19.20;99.90
52107;DHT22;38105;52.968;5.974;2022-07-22T09:58:08;19.20;99.90
52107;DHT22;38105;52.968;5.974;2022-07-22T10:00:35;19.10;99.90
52107;DHT22;38105;52.968;5.974;2022-07-22T10:03:04;18.90;99.90
52107;DHT22;38105;52.968;5.974;2022-07-22T10:05:40;19.00;99.90
52107;DHT22;38105;52.968;5.974;2022-07-22T10:08:06;19.00;99.90
52107;DHT22;38105;52.968;5.974;2022-07-22T10:10:33;19.10;99.90
52107;DHT22;38105;52.968;5.974;2022-07-22T10:13:00;19.20;99.90
52107;DHT22;38105;52.968;5.974;2022-07-22T10:15:27;19.40;99.90
52107;DHT22;38105;52.968;5.974;2022-07-22T10:17:55;19.50;99.90
52107;DHT22;38105;52.968;5.974;2022-07-22T10:20:24;19.60;99.90
52107;DHT22;38105;52.968;5.974;2022-07-22T10:22:55;19.70;99.90
52107;DHT22;38105;52.968;5.974;2022-07-22T10:25:24;19.80;99.90
52107;DHT22;38105;52.968;5.974;2022-07-22T10:28:04;19.90;99.90
52107;DHT22;38105;52.968;5.974;2022-07-22T10:30:36;20.10;99.90
52107;DHT22;38105;52.968;5.974;2022-07-22T10:35:36;20.40;99.90
52107;DHT22;38105;52.968;5.974;2022-07-22T10:38:05;20.50;99.90
52107;DHT22;38105;52.968;5.974;2022-07-22T10:41:00;20.60;99.90
52107;DHT22;38105;52.968;5.974;2022-07-22T10:43:52;20.70;99.90
52107;DHT22;38105;52.968;5.974;2022-07-22T10:46:18;20.80;99.90
52107;DHT22;38105;52.968;5.974;2022-07-22T10:48:45;21.00;99.90
52107;DHT22;38105;52.968;5.974;2022-07-22T10:51:20;21.00;99.90
52107;DHT22;38105;52.968;5.974;2022-07-22T10:53:57;21.20;99.90
52107;DHT22;38105;52.968;5.974;2022-07-22T10:56:30;21.30;99.90
52107;DHT22;38105;52.968;5.974;2022-07-22T10:59:13;21.40;99.90
52107;DHT22;38105;52.968;5.974;2022-07-22T11:01:50;21.50;99.90
52107;DHT22;38105;52.968;5.974;2022-07-22T11:04:21;21.50;99.90
52107;DHT22;38105;52.968;5.974;2022-07-22T11:06:49;21.50;99.90
52107;DHT22;38105;52.968;5.974;2022-07-22T11:09:17;21.50;99.90
52107;DHT22;38105;52.968;5.974;2022-07-22T11:11:46;21.60;99.90
52107;DHT22;38105;52.968;5.974;2022-07-22T11:14:43;21.70;99.90
52107;DHT22;38105;52.968;5.974;2022-07-22T11:17:11;21.70;99.90
52107;DHT22;38105;52.968;5.974;2022-07-22T11:19:41;21.70;99.90
52107;DHT22;38105;52.968;5.974;2022-07-22T11:22:11;21.60;99.90
52107;DHT22;38105;52.968;5.974;2022-07-22T11:24:39;21.70;99.90
52107;DHT22;38105;52.968;5.974;2022-07-22T11:27:13;21.60;99.90
52107;DHT22;38105;52.968;5.974;2022-07-22T11:29:40;21.60;99.90
52107;DHT22;38105;52.968;5.974;2022-07-22T11:32:11;21.60;99.90
52107;DHT22;38105;52.968;5.974;2022-07-22T11:34:39;21.50;99.90
52107;DHT22;38105;52.968;5.974;2022-07-22T11:37:08;21.40;99.90
52107;DHT22;38105;52.968;5.974;2022-07-22T11:39:34;21.30;99.90
52107;DHT22;38105;52.968;5.974;2022-07-22T11:42:01;21.30;99.90
52107;DHT22;38105;52.968;5.974;2022-07-22T11:44:29;21.20;99.90
52107;DHT22;38105;52.968;5.974;2022-07-22T11:46:56;21.20;99.90
52107;DHT22;38105;52.968;5.974;2022-07-22T11:49:25;21.20;99.90
52107;DHT22;38105;52.968;5.974;2022-07-22T11:51:51;21.10;99.90
52107;DHT22;38105;52.968;5.974;2022-07-22T11:54:17;21.10;99.90
52107;DHT22;38105;52.968;5.974;2022-07-22T11:56:43;21.00;99.90
52107;DHT22;38105;52.968;5.974;2022-07-22T11:59:13;20.90;99.90
52107;DHT22;38105;52.968;5.974;2022-07-22T12:01:39;20.80;99.90
52107;DHT22;38105;52.968;5.974;2022-07-22T12:04:12;20.60;99.90
52107;DHT22;38105;52.968;5.974;2022-07-22T12:06:40;20.50;99.90
52107;DHT22;38105;52.968;5.974;2022-07-22T12:09:09;20.40;99.90
52107;DHT22;38105;52.968;5.974;2022-07-22T12:11:38;20.50;99.90
52107;DHT22;38105;52.968;5.974;2022-07-22T12:14:06;20.40;99.90
52107;DHT22;38105;52.968;5.974;2022-07-22T12:16:33;20.40;99.90
52107;DHT22;38105;52.968;5.974;2022-07-22T12:19:00;20.50;99.90
52107;DHT22;38105;52.968;5.974;2022-07-22T12:21:29;20.50;99.90
52107;DHT22;38105;52.968;5.974;2022-07-22T12:24:04;20.40;99.90
52107;DHT22;38105;52.968;5.974;2022-07-22T12:26:39;20.40;99.90
52107;DHT22;38105;52.968;5.974;2022-07-22T12:29:21;20.40;99.90
52107;DHT22;38105;52.968;5.974;2022-07-22T12:31:59;20.40;99.90
52107;DHT22;38105;52.968;5.974;2022-07-22T12:39:57;20.40;99.90
52107;DHT22;38105;52.968;5.974;2022-07-22T12:42:26;20.40;99.90
52107;DHT22;38105;52.968;5.974;2022-07-22T12:45:11;20.40;99.90
52107;DHT22;38105;52.968;5.974;2022-07-22T12:47:42;20.50;99.90
52107;DHT22;38105;52.968;5.974;2022-07-22T12:50:36;20.50;99.90
52107;DHT22;38105;52.968;5.974;2022-07-22T12:53:05;20.60;99.90
52107;DHT22;38105;52.968;5.974;2022-07-22T12:55:40;20.60;99.90
52107;DHT22;38105;52.968;5.974;2022-07-22T12:58:07;20.70;99.90
52107;DHT22;38105;52.968;5.974;2022-07-22T13:00:38;20.80;99.90
52107;DHT22;38105;52.968;5.974;2022-07-22T13:03:04;20.90;99.90
52107;DHT22;38105;52.968;5.974;2022-07-22T13:05:30;21.00;99.90
52107;DHT22;38105;52.968;5.974;2022-07-22T13:07:57;21.10;99.90
52107;DHT22;38105;52.968;5.974;2022-07-22T13:10:24;21.10;99.90
52107;DHT22;38105;52.968;5.974;2022-07-22T13:12:51;21.10;99.90
52107;DHT22;38105;52.968;5.974;2022-07-22T13:15:18;20.90;99.90
52107;DHT22;38105;52.968;5.974;2022-07-22T13:17:45;20.90;99.90
52107;DHT22;38105;52.968;5.974;2022-07-22T13:20:12;20.90;99.90
52107;DHT22;38105;52.968;5.974;2022-07-22T13:22:39;20.90;99.90
52107;DHT22;38105;52.968;5.974;2022-07-22T13:25:05;21.00;99.90
52107;DHT22;38105;52.968;5.974;2022-07-22T13:27:31;21.00;99.90
52107;DHT22;38105;52.968;5.974;2022-07-22T13:29:57;21.10;99.90
52107;DHT22;38105;52.968;5.974;2022-07-22T13:32:23;21.20;99.90
52107;DHT22;38105;52.968;5.974;2022-07-22T13:34:48;21.30;99.90
52107;DHT22;38105;52.968;5.974;2022-07-22T13:37:14;21.40;99.90
52107;DHT22;38105;52.968;5.974;2022-07-22T13:39:40;21.50;99.90
52107;DHT22;38105;52.968;5.974;2022-07-22T13:42:07;21.40;99.90
52107;DHT22;38105;52.968;5.974;2022-07-22T13:44:33;21.40;99.90
52107;DHT22;38105;52.968;5.974;2022-07-22T13:47:00;21.30;99.90
52107;DHT22;38105;52.968;5.974;2022-07-22T13:49:26;21.40;99.90
52107;DHT22;38105;52.968;5.974;2022-07-22T13:51:52;21.40;99.90
52107;DHT22;38105;52.968;5.974;2022-07-22T13:54:18;21.40;99.90
52107;DHT22;38105;52.968;5.974;2022-07-22T13:56:45;21.30;99.90
52107;DHT22;38105;52.968;5.974;2022-07-22T13:59:13;21.20;99.90
52107;DHT22;38105;52.968;5.974;2022-07-22T14:01:39;21.10;99.90
52107;DHT22;38105;52.968;5.974;2022-07-22T14:04:04;21.20;99.90
52107;DHT22;38105;52.968;5.974;2022-07-22T14:06:32;21.20;99.90
52107;DHT22;38105;52.968;5.974;2022-07-22T14:08:57;21.20;99.90
52107;DHT22;38105;52.968;5.974;2022-07-22T14:11:23;21.30;99.90
52107;DHT22;38105;52.968;5.974;2022-07-22T14:13:49;21.50;99.90
52107;DHT22;38105;52.968;5.974;2022-07-22T14:16:15;21.60;99.90
52107;DHT22;38105;52.968;5.974;2022-07-22T14:19:08;21.70;99.90
52107;DHT22;38105;52.968;5.974;2022-07-22T14:21:35;21.70;99.90
52107;DHT22;38105;52.968;5.974;2022-07-22T14:24:02;21.80;99.90
52107;DHT22;38105;52.968;5.974;2022-07-22T14:26:28;21.80;99.90
52107;DHT22;38105;52.968;5.974;2022-07-22T14:28:53;21.70;99.90
52107;DHT22;38105;52.968;5.974;2022-07-22T14:31:19;21.80;99.90
52107;DHT22;38105;52.968;5.974;2022-07-22T14:33:45;21.70;99.90
52107;DHT22;38105;52.968;5.974;2022-07-22T14:36:11;21.70;99.90
52107;DHT22;38105;52.968;5.974;2022-07-22T14:38:37;21.50;99.90
52107;DHT22;38105;52.968;5.974;2022-07-22T14:41:03;21.50;99.90
52107;DHT22;38105;52.968;5.974;2022-07-22T14:43:28;21.60;99.90
52107;DHT22;38105;52.968;5.974;2022-07-22T14:45:54;21.40;99.90
52107;DHT22;38105;52.968;5.974;2022-07-22T14:48:20;21.60;99.90
52107;DHT22;38105;52.968;5.974;2022-07-22T14:50:45;21.50;99.90
52107;DHT22;38105;52.968;5.974;2022-07-22T14:53:12;21.50;99.90
52107;DHT22;38105;52.968;5.974;2022-07-22T14:55:38;21.60;99.90
52107;DHT22;38105;52.968;5.974;2022-07-22T14:58:04;21.40;99.90
52107;DHT22;38105;52.968;5.974;2022-07-22T15:00:29;21.40;99.90
52107;DHT22;38105;52.968;5.974;2022-07-22T15:02:55;21.50;99.90
52107;DHT22;38105;52.968;5.974;2022-07-22T15:05:20;21.40;99.90
52107;DHT22;38105;52.968;5.974;2022-07-22T15:07:46;21.30;99.90
52107;DHT22;38105;52.968;5.974;2022-07-22T15:10:12;21.20;99.90
52107;DHT22;38105;52.968;5.974;2022-07-22T15:12:37;21.10;99.90
52107;DHT22;38105;52.968;5.974;2022-07-22T15:15:03;21.10;99.90
52107;DHT22;38105;52.968;5.974;2022-07-22T15:17:34;21.00;99.90
52107;DHT22;38105;52.968;5.974;2022-07-22T15:20:00;20.90;99.90
52107;DHT22;38105;52.968;5.974;2022-07-22T15:22:26;20.80;99.90
52107;DHT22;38105;52.968;5.974;2022-07-22T15:24:53;20.70;99.90
52107;DHT22;38105;52.968;5.974;2022-07-22T15:27:19;20.60;99.90
52107;DHT22;38105;52.968;5.974;2022-07-22T15:29:45;20.60;99.90
52107;DHT22;38105;52.968;5.974;2022-07-22T15:32:10;20.40;99.90
52107;DHT22;38105;52.968;5.974;2022-07-22T15:34:37;20.20;99.90
52107;DHT22;38105;52.968;5.974;2022-07-22T15:37:03;20.10;99.90
52107;DHT22;38105;52.968;5.974;2022-07-22T15:39:29;20.00;99.90
52107;DHT22;38105;52.968;5.974;2022-07-22T15:41:54;19.80;99.90